KSJT/SJT METAR and TAF weather

Enter ICAO airport designator
Station Type Date Time Source
KSJT METAR 2019/10/22 15:51 UTC NOAA

KSJT 221551Z 06004KT 10SM CLR 17/02 A3025 RMK AO2 SLP239 T01720017


Station Type Date Time Source
KSJT Decoded METAR 2019/10/22 15:51 UTC NOAA

MATHIS FIELD, TX, United States (KSJT) 31-21N 100-30W 581M
Oct 22, 2019 - 11:51 AM EDT / 2019.10.22 1551 UTC
Wind: from the ENE (060 degrees) at 5 MPH (4 KT):0
Visibility: 10 mile(s):0
Sky conditions: clear
Temperature: 63.0 F (17.2 C)
Dew Point: 35.1 F (1.7 C)
Relative Humidity: 35%
Pressure (altimeter): 30.25 in. Hg (1024 hPa)
ob: KSJT 221551Z 06004KT 10SM CLR 17/02 A3025 RMK AO2 SLP239 T01720017
cycle: 16

Station Type Date Time Source
KSJT TAF 2019/10/22 12:30 UTC NOAA

TAF KSJT 221128Z 2212/2312 VRB04KT P6SM SKC
FM221600 20008KT P6SM SKC

Example: see airport list